createdAt,value
2019-03-30T00:01:44.420Z,30.5104
2019-03-30T00:03:48.441Z,30.3929
2019-03-30T00:05:52.426Z,30.3746
2019-03-30T00:07:56.428Z,30.4097
2019-03-30T00:10:00.409Z,30.4524
2019-03-30T00:12:04.425Z,30.4479
2019-03-30T00:14:08.428Z,30.4158
2019-03-30T00:16:12.415Z,30.3777
2019-03-30T00:18:16.415Z,30.4143
2019-03-30T00:20:20.418Z,30.4921
2019-03-30T00:22:24.391Z,30.5379
2019-03-30T00:24:28.418Z,30.3731
2019-03-30T00:26:32.424Z,30.4616
2019-03-30T00:28:36.408Z,30.4021
2019-03-30T00:30:40.409Z,30.4738
2019-03-30T00:32:44.401Z,30.4433
2019-03-30T00:34:48.427Z,30.4738
2019-03-30T00:36:52.415Z,30.4845
2019-03-30T00:38:56.413Z,30.4524
2019-03-30T00:41:00.427Z,30.4417
2019-03-30T00:43:04.424Z,30.3838
2019-03-30T00:45:08.413Z,30.3639
2019-03-30T00:47:12.422Z,30.3792
2019-03-30T00:49:16.405Z,30.4067
2019-03-30T00:51:20.481Z,30.4250
2019-03-30T00:53:24.422Z,30.4097
2019-03-30T00:55:28.425Z,30.3151
2019-03-30T00:57:32.400Z,30.4067
2019-03-30T00:59:36.407Z,30.4662
2019-03-30T01:01:40.401Z,30.4646
2019-03-30T01:03:44.585Z,30.3746
2019-03-30T01:05:48.416Z,30.3700
2019-03-30T01:07:52.416Z,30.4006
2019-03-30T01:09:56.415Z,30.3731
2019-03-30T01:12:00.400Z,30.3197
2019-03-30T01:14:04.392Z,30.3975
2019-03-30T01:16:08.400Z,30.3365
2019-03-30T01:18:12.402Z,30.3822
2019-03-30T01:20:16.403Z,30.4112
2019-03-30T01:22:20.431Z,30.2953
2019-03-30T01:24:24.440Z,30.3059
2019-03-30T01:26:28.418Z,30.3655
2019-03-30T01:28:32.418Z,30.3365
2019-03-30T01:30:36.433Z,30.2693
2019-03-30T01:32:40.412Z,30.2098
2019-03-30T01:34:44.427Z,30.3151
2019-03-30T01:36:48.411Z,30.4097
2019-03-30T01:38:52.426Z,30.3914
2019-03-30T01:40:56.400Z,30.2541
2019-03-30T01:43:00.434Z,30.3136
2019-03-30T01:45:04.425Z,30.3014
2019-03-30T01:47:08.395Z,30.3777
2019-03-30T01:49:12.429Z,30.2815
2019-03-30T01:51:16.407Z,30.4189
2019-03-30T01:53:20.441Z,30.3426
2019-03-30T01:55:24.430Z,30.0526
2019-03-30T01:57:28.422Z,30.2190
2019-03-30T01:59:32.395Z,30.2495
2019-03-30T02:01:36.443Z,30.2007
2019-03-30T02:03:40.421Z,30.3227
2019-03-30T02:05:51.966Z,30.0801
2019-03-30T02:07:55.402Z,30.2220
2019-03-30T02:09:59.410Z,30.3380
2019-03-30T02:12:11.008Z,30.2007
2019-03-30T02:14:14.407Z,30.2586
2019-03-30T02:16:27.511Z,30.1991
2019-03-30T02:18:31.397Z,30.3456
2019-03-30T02:20:35.420Z,30.2403
2019-03-30T02:22:39.403Z,30.2419
2019-03-30T02:24:43.415Z,30.3136
2019-03-30T02:26:47.410Z,30.2220
2019-03-30T02:28:51.424Z,30.4524
2019-03-30T02:30:55.503Z,30.2724
2019-03-30T02:32:59.423Z,30.4967
2019-03-30T02:35:03.400Z,30.2785
2019-03-30T02:37:07.404Z,30.2373
2019-03-30T02:39:11.414Z,30.1900
2019-03-30T02:41:15.430Z,30.3288
2019-03-30T02:43:19.427Z,30.2373
2019-03-30T02:45:23.408Z,30.2083
2019-03-30T02:47:27.426Z,30.2220
2019-03-30T02:49:31.408Z,30.2510
2019-03-30T02:51:35.420Z,30.1900
2019-03-30T02:53:39.428Z,30.2815
2019-03-30T02:55:43.412Z,30.2495
2019-03-30T02:57:47.427Z,30.1732
2019-03-30T02:59:51.421Z,30.2632
2019-03-30T03:01:55.405Z,30.0954
2019-03-30T03:03:59.447Z,30.3365
2019-03-30T03:06:03.447Z,30.2358
2019-03-30T03:08:07.421Z,30.2586
2019-03-30T03:10:11.427Z,30.3502
2019-03-30T03:12:15.417Z,30.2632
2019-03-30T03:14:19.455Z,30.4158
2019-03-30T03:16:27.090Z,30.3227
2019-03-30T03:18:31.452Z,30.2907
2019-03-30T03:20:35.430Z,30.4707
2019-03-30T03:22:39.417Z,30.3334
2019-03-30T03:24:43.449Z,30.3685
2019-03-30T03:26:47.412Z,30.3822
2019-03-30T03:28:51.439Z,30.5440
2019-03-30T03:30:55.435Z,30.4799
2019-03-30T03:32:59.426Z,30.4555
2019-03-30T03:35:10.600Z,30.4845
2019-03-30T03:37:22.587Z,30.4387
2019-03-30T03:39:26.419Z,30.4662
2019-03-30T03:41:38.120Z,30.4646
2019-03-30T03:43:42.520Z,30.5104
2019-03-30T03:45:46.417Z,30.5486
2019-03-30T03:47:50.396Z,30.5394
2019-03-30T03:49:54.412Z,30.4936
2019-03-30T03:51:58.432Z,30.5028
2019-03-30T03:54:02.401Z,30.4921
2019-03-30T03:56:06.595Z,30.6401
2019-03-30T03:58:17.663Z,30.5974
2019-03-30T04:00:21.428Z,30.6386
2019-03-30T04:02:25.406Z,30.6538
2019-03-30T04:04:29.482Z,30.6386
2019-03-30T04:06:33.398Z,30.5303
2019-03-30T04:08:37.414Z,30.7134
2019-03-30T04:10:41.402Z,30.6676
2019-03-30T04:12:45.433Z,30.8003
2019-03-30T04:14:49.399Z,30.7118
2019-03-30T04:16:53.403Z,30.6950
2019-03-30T04:18:57.447Z,30.7683
2019-03-30T04:21:01.424Z,30.7118
2019-03-30T04:23:05.442Z,30.8171
2019-03-30T04:25:09.411Z,30.6813
2019-03-30T04:27:13.392Z,30.6798
2019-03-30T04:29:17.437Z,30.6615
2019-03-30T04:31:21.388Z,30.7393
2019-03-30T04:33:25.396Z,30.7683
2019-03-30T04:35:29.403Z,30.8583
2019-03-30T04:37:33.414Z,30.7988
2019-03-30T04:39:37.420Z,30.8721
2019-03-30T04:41:41.397Z,30.9270
2019-03-30T04:43:45.414Z,30.8217
2019-03-30T04:45:49.399Z,30.7759
2019-03-30T04:47:53.405Z,30.6859
2019-03-30T04:49:57.420Z,30.9728
2019-03-30T04:52:01.406Z,30.9148
2019-03-30T04:54:05.414Z,30.9285
2019-03-30T04:56:09.418Z,30.9468
2019-03-30T04:58:13.398Z,30.9728
2019-03-30T05:00:17.406Z,30.9148
2019-03-30T05:02:21.408Z,31.0018
2019-03-30T05:04:25.424Z,31.0597
2019-03-30T05:06:29.402Z,30.9682
2019-03-30T05:08:33.413Z,31.0918
2019-03-30T05:10:37.397Z,31.1788
2019-03-30T05:12:41.403Z,30.9972
2019-03-30T05:14:45.406Z,31.1650
2019-03-30T05:16:49.415Z,30.9972
2019-03-30T05:18:53.401Z,31.0246
2019-03-30T05:20:57.423Z,30.9651
2019-03-30T05:23:01.455Z,30.9499
2019-03-30T05:25:05.411Z,31.0246
2019-03-30T05:27:09.410Z,31.0384
2019-03-30T05:29:13.412Z,30.9453
2019-03-30T05:31:17.438Z,30.9590
2019-03-30T05:33:21.402Z,30.8995
2019-03-30T05:35:25.434Z,30.8370
2019-03-30T05:37:29.415Z,30.9407
2019-03-30T05:39:33.417Z,31.1330
2019-03-30T05:41:37.402Z,31.1879
2019-03-30T05:43:41.404Z,31.3405
2019-03-30T05:45:45.442Z,31.2978
2019-03-30T05:47:49.397Z,31.2474
2019-03-30T05:49:53.411Z,31.2169
2019-03-30T05:51:57.424Z,31.3115
2019-03-30T05:54:01.410Z,31.2932
2019-03-30T05:56:05.426Z,31.1971
2019-03-30T05:58:09.409Z,31.1528
2019-03-30T06:00:13.415Z,31.1849
2019-03-30T06:02:17.409Z,31.2016
2019-03-30T06:04:21.412Z,31.3176
2019-03-30T06:06:25.394Z,31.0979
2019-03-30T06:08:29.415Z,31.1803
2019-03-30T06:10:33.398Z,31.1803
2019-03-30T06:12:37.400Z,31.1711
2019-03-30T06:14:41.408Z,31.1376
2019-03-30T06:16:45.414Z,31.2123
2019-03-30T06:18:49.397Z,31.2444
2019-03-30T06:20:53.397Z,31.1147
2019-03-30T06:22:57.413Z,31.2581
2019-03-30T06:25:01.422Z,31.1711
2019-03-30T06:27:05.417Z,31.2566
2019-03-30T06:29:09.409Z,31.1284
2019-03-30T06:31:13.405Z,31.1421
2019-03-30T06:33:17.418Z,31.2749
2019-03-30T06:35:21.407Z,31.1299
2019-03-30T06:37:25.390Z,31.0384
2019-03-30T06:39:29.393Z,31.1284
2019-03-30T06:41:33.400Z,31.2154
2019-03-30T06:43:37.408Z,31.1513
2019-03-30T06:45:41.410Z,31.1330
2019-03-30T06:47:45.399Z,31.1345
2019-03-30T06:49:49.428Z,31.2078
2019-03-30T06:51:53.403Z,31.0597
2019-03-30T06:53:57.419Z,31.0475
2019-03-30T06:56:01.408Z,31.0613
2019-03-30T06:58:05.406Z,31.1254
2019-03-30T07:00:09.423Z,31.0643
2019-03-30T07:02:13.403Z,31.0475
2019-03-30T07:04:17.410Z,31.0780
2019-03-30T07:06:21.411Z,31.0964
2019-03-30T07:08:25.389Z,31.0643
2019-03-30T07:10:29.389Z,31.1116
2019-03-30T07:12:33.422Z,31.0368
2019-03-30T07:14:37.406Z,31.0979
2019-03-30T07:16:41.392Z,31.1788
2019-03-30T07:18:45.401Z,31.1299
2019-03-30T07:20:49.440Z,31.1330
2019-03-30T07:22:53.418Z,31.1925
2019-03-30T07:24:57.421Z,31.1482
2019-03-30T07:27:01.388Z,31.1025
2019-03-30T07:29:05.409Z,31.1345
2019-03-30T07:31:09.415Z,31.2123
2019-03-30T07:33:13.385Z,31.2566
2019-03-30T07:35:17.417Z,31.1788
2019-03-30T07:37:21.399Z,31.2261
2019-03-30T07:39:25.393Z,31.2291
2019-03-30T07:41:29.398Z,31.1376
2019-03-30T07:43:33.394Z,31.2169
2019-03-30T07:45:37.416Z,31.1894
2019-03-30T07:47:41.403Z,31.1894
2019-03-30T07:49:45.413Z,31.1757
2019-03-30T07:51:49.419Z,31.2200
2019-03-30T07:53:53.428Z,31.2352
2019-03-30T07:56:07.651Z,31.2215
2019-03-30T07:58:06.457Z,31.1940
2019-03-30T08:00:10.413Z,31.1620
2019-03-30T08:02:14.398Z,31.1940
2019-03-30T08:04:18.398Z,31.2566
2019-03-30T08:06:22.396Z,31.1803
2019-03-30T08:08:26.405Z,31.1666
2019-03-30T08:10:30.412Z,31.1925
2019-03-30T08:12:34.417Z,31.1192
2019-03-30T08:14:38.428Z,31.1513
2019-03-30T08:16:42.411Z,31.1666
2019-03-30T08:18:46.416Z,31.2291
2019-03-30T08:20:50.397Z,31.2581
2019-03-30T08:22:54.402Z,31.2901
2019-03-30T08:24:58.412Z,31.4580
2019-03-30T08:27:02.425Z,31.4870
2019-03-30T08:29:06.411Z,31.5175
2019-03-30T08:31:10.424Z,31.6243
2019-03-30T08:33:14.413Z,31.5969
2019-03-30T08:35:26.264Z,31.5221
2019-03-30T08:37:30.398Z,31.5221
2019-03-30T08:39:34.417Z,31.5007
2019-03-30T08:41:38.429Z,31.7189
2019-03-30T08:43:42.430Z,31.6915
2019-03-30T08:45:48.953Z,31.6411
2019-03-30T08:47:52.421Z,31.7830
2019-03-30T08:49:56.425Z,31.4855
2019-03-30T08:52:00.403Z,31.6655
2019-03-30T08:54:04.471Z,31.6960
2019-03-30T08:56:08.405Z,31.6655
2019-03-30T08:58:12.409Z,31.4534
2019-03-30T09:00:16.420Z,31.4260
2019-03-30T09:02:20.402Z,31.3939
2019-03-30T09:04:24.785Z,31.3954
2019-03-30T09:06:28.398Z,31.5496
2019-03-30T09:08:32.434Z,31.4855
2019-03-30T09:10:36.399Z,31.5007
2019-03-30T09:12:40.418Z,31.4092
2019-03-30T09:14:44.413Z,31.5236
2019-03-30T09:16:48.423Z,31.5557
2019-03-30T09:18:52.424Z,31.6335
2019-03-30T09:20:56.413Z,31.5602
2019-03-30T09:23:00.415Z,31.5816
2019-03-30T09:25:04.397Z,31.6320
2019-03-30T09:27:08.410Z,31.5450
2019-03-30T09:29:12.396Z,31.5145
2019-03-30T09:31:16.419Z,31.5770
2019-03-30T09:33:20.432Z,31.6609
2019-03-30T09:35:24.415Z,31.6365
2019-03-30T09:37:28.415Z,31.5465
2019-03-30T09:39:32.430Z,31.3817
2019-03-30T09:41:36.433Z,31.4443
2019-03-30T09:43:40.417Z,31.4595
2019-03-30T09:45:44.451Z,31.5328
2019-03-30T09:47:48.423Z,31.4580
2019-03-30T09:49:52.411Z,31.4458
2019-03-30T09:51:56.425Z,31.5969
2019-03-30T09:54:00.467Z,31.3436
2019-03-30T09:56:04.428Z,31.3268
2019-03-30T09:58:08.412Z,31.2978
2019-03-30T10:00:12.421Z,31.3451
2019-03-30T10:02:16.417Z,31.2856
2019-03-30T10:04:20.420Z,31.1650
2019-03-30T10:06:33.776Z,31.1788
2019-03-30T10:08:33.423Z,31.1696
2019-03-30T10:10:37.429Z,31.1833
2019-03-30T10:12:45.447Z,31.1391
2019-03-30T10:14:49.432Z,31.0964
2019-03-30T10:16:53.408Z,31.2123
2019-03-30T10:18:57.405Z,31.1696
2019-03-30T10:21:01.430Z,31.0063
2019-03-30T10:23:05.428Z,30.9636
2019-03-30T10:25:09.413Z,31.0368
2019-03-30T10:27:13.417Z,30.9590
2019-03-30T10:29:17.405Z,31.0658
2019-03-30T10:31:21.420Z,31.0704
2019-03-30T10:33:25.442Z,30.9636
2019-03-30T10:35:29.415Z,31.0246
2019-03-30T10:37:33.414Z,31.2810
2019-03-30T10:39:37.395Z,31.0918
2019-03-30T10:41:41.428Z,31.1025
2019-03-30T10:43:45.430Z,31.1482
2019-03-30T10:45:49.458Z,30.9865
2019-03-30T10:47:53.403Z,31.0918
2019-03-30T10:49:57.420Z,31.0140
2019-03-30T10:52:01.429Z,31.2383
2019-03-30T10:54:05.411Z,31.1376
2019-03-30T10:56:09.451Z,31.2566
2019-03-30T10:58:13.424Z,31.1147
2019-03-30T11:00:17.440Z,31.2078
2019-03-30T11:02:21.414Z,31.0750
2019-03-30T11:04:25.424Z,31.2169
2019-03-30T11:06:29.412Z,31.3756
2019-03-30T11:08:33.417Z,31.2337
2019-03-30T11:10:37.441Z,31.3954
2019-03-30T11:12:41.424Z,31.2840
2019-03-30T11:14:45.416Z,31.4000
2019-03-30T11:16:49.417Z,31.6106
2019-03-30T11:18:53.424Z,31.4275
2019-03-30T11:20:57.416Z,31.2810
2019-03-30T11:23:01.412Z,31.2840
2019-03-30T11:25:07.764Z,31.4443
2019-03-30T11:27:12.432Z,31.2383
2019-03-30T11:29:16.454Z,31.4763
2019-03-30T11:31:20.415Z,31.5953
2019-03-30T11:33:24.416Z,31.6060
2019-03-30T11:35:28.423Z,31.5358
2019-03-30T11:37:32.409Z,31.5969
2019-03-30T11:39:36.408Z,31.5785
2019-03-30T11:41:40.419Z,31.7159
2019-03-30T11:43:44.412Z,31.6426
2019-03-30T11:45:48.408Z,31.3909
2019-03-30T11:47:52.421Z,31.4351
2019-03-30T11:49:56.428Z,31.6091
2019-03-30T11:52:00.409Z,31.6426
2019-03-30T11:54:05.450Z,31.5953
2019-03-30T11:56:09.419Z,31.1833
2019-03-30T11:58:13.431Z,30.2541
2019-03-30T12:00:17.415Z,30.3410
2019-03-30T12:02:27.882Z,29.8848
2019-03-30T12:04:30.434Z,29.9016
2019-03-30T12:06:34.416Z,30.1595
2019-03-30T12:08:38.433Z,29.8695
2019-03-30T12:10:42.410Z,28.8441
2019-03-30T12:12:46.415Z,29.0150
2019-03-30T12:14:50.435Z,29.0776
2019-03-30T12:16:54.424Z,29.2103
2019-03-30T12:18:58.489Z,30.1595
2019-03-30T12:21:02.412Z,29.8985
2019-03-30T12:23:06.405Z,30.0999
2019-03-30T12:25:10.418Z,30.2327
2019-03-30T12:27:14.421Z,29.2882
2019-03-30T12:29:18.446Z,29.1936
2019-03-30T12:31:22.432Z,29.9443
2019-03-30T12:33:26.423Z,29.2561
2019-03-30T12:35:30.424Z,28.7846
2019-03-30T12:37:34.431Z,28.8731
2019-03-30T12:39:38.439Z,28.9036
2019-03-30T12:41:42.419Z,28.5939
2019-03-30T12:43:46.467Z,28.6107
2019-03-30T12:45:50.522Z,29.2103
2019-03-30T12:47:54.413Z,28.6397
2019-03-30T12:49:58.459Z,28.7343
2019-03-30T12:52:02.425Z,28.9311
2019-03-30T12:54:06.407Z,28.3284
2019-03-30T12:56:10.480Z,28.3772
2019-03-30T12:58:14.434Z,28.1544
2019-03-30T13:00:18.418Z,28.4245
2019-03-30T13:02:22.432Z,28.5801
2019-03-30T13:04:26.418Z,28.3513
2019-03-30T13:06:30.427Z,28.3055
2019-03-30T13:08:34.417Z,28.2124
2019-03-30T13:10:38.436Z,28.1819
2019-03-30T13:12:42.426Z,28.3833
2019-03-30T13:14:46.415Z,28.3131
2019-03-30T13:16:50.421Z,28.1819
2019-03-30T13:18:54.428Z,28.1682
2019-03-30T13:20:58.414Z,27.8294
2019-03-30T13:23:02.409Z,27.1778
2019-03-30T13:25:06.429Z,27.9713
2019-03-30T13:27:12.918Z,28.1041
2019-03-30T13:29:17.435Z,28.2918
2019-03-30T13:31:21.420Z,28.3558
2019-03-30T13:33:25.412Z,28.0079
2019-03-30T13:35:29.423Z,27.5441
2019-03-30T13:37:33.412Z,28.2780
2019-03-30T13:39:37.416Z,28.0842
2019-03-30T13:41:41.410Z,28.8228
2019-03-30T13:43:45.425Z,28.9815
2019-03-30T13:45:49.438Z,28.5573
2019-03-30T13:47:53.414Z,28.8533
2019-03-30T13:49:57.421Z,29.1295
2019-03-30T13:52:01.404Z,28.4276
2019-03-30T13:54:05.419Z,29.4575
2019-03-30T13:56:17.021Z,28.1773
2019-03-30T13:58:18.435Z,29.3812
2019-03-30T14:00:30.407Z,28.4886
2019-03-30T14:02:34.428Z,29.4087
2019-03-30T14:04:47.434Z,29.2851
2019-03-30T14:06:51.445Z,29.1524
2019-03-30T14:08:55.462Z,28.9830
2019-03-30T14:10:59.416Z,29.2256
2019-03-30T14:13:03.442Z,29.1295
2019-03-30T14:15:09.351Z,28.9418
2019-03-30T14:17:13.435Z,29.2744
2019-03-30T14:19:17.420Z,28.9586
2019-03-30T14:21:21.468Z,28.1071
2019-03-30T14:23:25.427Z,27.8645
2019-03-30T14:25:29.418Z,28.5557
2019-03-30T14:27:33.445Z,27.8202
2019-03-30T14:29:37.443Z,28.4230
2019-03-30T14:31:41.427Z,28.4657
2019-03-30T14:33:45.409Z,28.4703
2019-03-30T14:35:49.428Z,28.4962
2019-03-30T14:37:53.417Z,28.3375
2019-03-30T14:39:57.431Z,28.3726
2019-03-30T14:42:01.441Z,28.4184
2019-03-30T14:44:05.412Z,28.0262
2019-03-30T14:46:09.421Z,28.2948
2019-03-30T14:48:13.412Z,28.4749
2019-03-30T14:50:17.419Z,28.0720
2019-03-30T14:52:21.424Z,27.7516
2019-03-30T14:54:25.424Z,28.2673
2019-03-30T14:56:29.420Z,27.4861
2019-03-30T14:58:33.423Z,28.1575
2019-03-30T15:00:37.439Z,28.1865
2019-03-30T15:02:41.436Z,28.1621
2019-03-30T15:04:45.421Z,28.0903
2019-03-30T15:06:49.406Z,28.0766
2019-03-30T15:08:53.429Z,27.9393
2019-03-30T15:10:57.416Z,27.9255
2019-03-30T15:13:01.421Z,28.0751
2019-03-30T15:15:05.406Z,27.8233
2019-03-30T15:17:09.421Z,27.7134
2019-03-30T15:19:13.410Z,27.8004
2019-03-30T15:21:17.411Z,27.4250
2019-03-30T15:23:21.397Z,27.4479
2019-03-30T15:25:25.403Z,27.3487
2019-03-30T15:27:29.394Z,27.4205
2019-03-30T15:29:33.392Z,27.5669
2019-03-30T15:31:45.013Z,27.4311
2019-03-30T15:33:48.423Z,27.4159
2019-03-30T15:35:52.401Z,27.4708
2019-03-30T15:37:56.396Z,27.3976
2019-03-30T15:40:00.423Z,27.3259
2019-03-30T15:42:04.409Z,27.3625
2019-03-30T15:44:08.414Z,27.3426
2019-03-30T15:46:14.305Z,27.4266
2019-03-30T15:48:18.407Z,27.7867
2019-03-30T15:50:22.414Z,27.6692
2019-03-30T15:52:26.421Z,27.7562
2019-03-30T15:54:30.396Z,27.4311
2019-03-30T15:56:34.469Z,27.3213
2019-03-30T15:58:38.433Z,27.4540
2019-03-30T16:00:42.421Z,27.2282
2019-03-30T16:02:46.411Z,27.4571
2019-03-30T16:04:50.422Z,27.3075
2019-03-30T16:06:54.430Z,27.1290
2019-03-30T16:08:58.417Z,27.4128
2019-03-30T16:11:02.397Z,27.2618
2019-03-30T16:13:06.448Z,27.3121
2019-03-30T16:15:10.431Z,27.2801
2019-03-30T16:17:15.028Z,27.0909
2019-03-30T16:19:18.418Z,27.3259
2019-03-30T16:21:22.392Z,26.9764
2019-03-30T16:23:26.401Z,27.4907
2019-03-30T16:25:30.416Z,27.1138
2019-03-30T16:27:34.398Z,27.1107
2019-03-30T16:29:38.413Z,27.0924
2019-03-30T16:31:42.402Z,27.0878
2019-03-30T16:33:47.089Z,27.0726
2019-03-30T16:35:51.426Z,26.6667
2019-03-30T16:37:55.399Z,26.8772
2019-03-30T16:39:59.410Z,27.0130
2019-03-30T16:42:03.414Z,26.9139
2019-03-30T16:44:07.398Z,27.0222
2019-03-30T16:46:11.407Z,27.1519
2019-03-30T16:48:15.399Z,27.1015
2019-03-30T16:50:19.407Z,27.0863
2019-03-30T16:52:23.410Z,27.1427
2019-03-30T16:54:27.398Z,26.9581
2019-03-30T16:56:31.405Z,26.8681
2019-03-30T16:58:35.420Z,26.8940
2019-03-30T17:00:55.341Z,26.8574
2019-03-30T17:02:48.399Z,26.9413
2019-03-30T17:04:52.415Z,27.1870
2019-03-30T17:06:56.406Z,27.3381
2019-03-30T17:09:00.414Z,27.0680
2019-03-30T17:11:04.421Z,27.3701
2019-03-30T17:13:08.391Z,27.2801
2019-03-30T17:15:12.429Z,27.0634
2019-03-30T17:17:16.413Z,27.1183
2019-03-30T17:19:20.397Z,27.2480
2019-03-30T17:21:24.413Z,27.0863
2019-03-30T17:23:28.425Z,27.1153
2019-03-30T17:25:32.411Z,27.1778
2019-03-30T17:27:36.409Z,27.0268
2019-03-30T17:29:40.457Z,27.0726
2019-03-30T17:31:44.425Z,27.0680
2019-03-30T17:33:48.403Z,27.0237
2019-03-30T17:35:52.428Z,27.2007
2019-03-30T17:37:56.412Z,27.3152
2019-03-30T17:40:00.536Z,27.3426
2019-03-30T17:42:04.406Z,27.3198
2019-03-30T17:44:08.413Z,27.2465
2019-03-30T17:46:12.426Z,27.1748
2019-03-30T17:48:16.410Z,27.4662
2019-03-30T17:50:20.418Z,27.3030
2019-03-30T17:52:24.433Z,27.6677
2019-03-30T17:54:28.430Z,27.4388
2019-03-30T17:56:32.417Z,27.5593
2019-03-30T17:58:36.430Z,27.5120
2019-03-30T18:00:40.409Z,27.6738
2019-03-30T18:02:44.423Z,27.8660
2019-03-30T18:04:48.425Z,27.8645
2019-03-30T18:06:52.429Z,27.9393
2019-03-30T18:08:56.408Z,27.7516
2019-03-30T18:11:03.884Z,27.7333
2019-03-30T18:13:08.414Z,27.8340
2019-03-30T18:15:12.387Z,27.3518
2019-03-30T18:17:16.432Z,27.8782
2019-03-30T18:19:20.417Z,27.8340
2019-03-30T18:21:24.405Z,27.4769
2019-03-30T18:23:28.421Z,27.2847
2019-03-30T18:25:32.403Z,27.4434
2019-03-30T18:27:36.413Z,27.5898
2019-03-30T18:29:40.418Z,27.8462
2019-03-30T18:31:44.403Z,27.8569
2019-03-30T18:33:48.408Z,27.7501
2019-03-30T18:35:52.410Z,27.7958
2019-03-30T18:37:56.421Z,27.8416
2019-03-30T18:40:00.440Z,28.0751
2019-03-30T18:42:04.428Z,28.0293
2019-03-30T18:44:08.422Z,27.1153
2019-03-30T18:46:20.594Z,27.6310
2019-03-30T18:48:24.445Z,27.3976
2019-03-30T18:50:28.435Z,27.2984
2019-03-30T18:52:32.417Z,27.8828
2019-03-30T18:54:36.429Z,27.4952
2019-03-30T18:56:40.406Z,27.4357
2019-03-30T18:58:44.423Z,27.3976
2019-03-30T19:00:48.434Z,27.2938
2019-03-30T19:02:52.466Z,27.2419
2019-03-30T19:04:56.417Z,27.3121
2019-03-30T19:07:00.408Z,27.9149
2019-03-30T19:09:04.421Z,27.7409
2019-03-30T19:11:08.421Z,27.8614
2019-03-30T19:13:12.427Z,27.5319
2019-03-30T19:15:16.414Z,27.7745
2019-03-30T19:17:20.424Z,27.8248
2019-03-30T19:19:24.421Z,28.0339
2019-03-30T19:21:28.429Z,28.0156
2019-03-30T19:23:32.409Z,28.0079
2019-03-30T19:25:36.409Z,27.8187
2019-03-30T19:27:40.409Z,28.0110
2019-03-30T19:29:44.414Z,27.9973
2019-03-30T19:31:48.419Z,27.9927
2019-03-30T19:33:52.417Z,28.0171
2019-03-30T19:35:56.422Z,28.0293
2019-03-30T19:38:00.410Z,28.0583
2019-03-30T19:40:04.414Z,27.9942
2019-03-30T19:42:08.427Z,28.0995
2019-03-30T19:44:12.430Z,28.1270
2019-03-30T19:46:16.416Z,28.1636
2019-03-30T19:48:20.435Z,28.2002
2019-03-30T19:50:24.423Z,28.3055
2019-03-30T19:52:39.207Z,28.1453
2019-03-30T19:54:37.428Z,28.0446
2019-03-30T19:56:41.410Z,28.0018
2019-03-30T19:58:45.422Z,28.1682
2019-03-30T20:00:49.411Z,28.2307
2019-03-30T20:02:53.520Z,28.2490
2019-03-30T20:04:57.414Z,28.2445
2019-03-30T20:07:01.496Z,28.2002
2019-03-30T20:09:05.438Z,28.2780
2019-03-30T20:11:09.417Z,28.3772
2019-03-30T20:13:13.435Z,28.2918
2019-03-30T20:15:17.411Z,28.3497
2019-03-30T20:17:21.432Z,28.2353
2019-03-30T20:19:25.437Z,28.3085
2019-03-30T20:21:29.422Z,28.3833
2019-03-30T20:23:33.418Z,28.4153
2019-03-30T20:25:37.423Z,28.3284
2019-03-30T20:27:41.437Z,28.6397
2019-03-30T20:29:45.418Z,28.6839
2019-03-30T20:31:49.428Z,28.4871
2019-03-30T20:33:53.423Z,28.5649
2019-03-30T20:35:57.408Z,28.5618
2019-03-30T20:38:01.442Z,28.5344
2019-03-30T20:40:05.427Z,28.6061
2019-03-30T20:42:09.437Z,28.6076
2019-03-30T20:44:13.434Z,28.5893
2019-03-30T20:46:17.439Z,28.8167
2019-03-30T20:48:21.441Z,28.7541
2019-03-30T20:50:25.441Z,28.7297
2019-03-30T20:52:29.419Z,28.5328
2019-03-30T20:54:33.449Z,28.5740
2019-03-30T20:56:37.400Z,28.6839
2019-03-30T20:58:41.431Z,28.4688
2019-03-30T21:00:45.409Z,28.3497
2019-03-30T21:02:49.411Z,28.5069
2019-03-30T21:04:53.425Z,28.7633
2019-03-30T21:06:57.431Z,28.5603
2019-03-30T21:09:01.421Z,28.7404
2019-03-30T21:11:05.442Z,28.9143
2019-03-30T21:13:09.429Z,28.8350
2019-03-30T21:15:13.453Z,28.8121
2019-03-30T21:17:17.417Z,28.7572
2019-03-30T21:19:21.440Z,28.7083
2019-03-30T21:21:25.432Z,28.6564
2019-03-30T21:23:29.427Z,28.7526
2019-03-30T21:25:33.444Z,28.7800
2019-03-30T21:27:37.421Z,28.9586
2019-03-30T21:29:54.015Z,28.7312
2019-03-30T21:31:50.425Z,29.0150
2019-03-30T21:33:54.423Z,28.8823
2019-03-30T21:35:58.424Z,28.9860
2019-03-30T21:38:02.441Z,28.9281
2019-03-30T21:40:06.430Z,29.1066
2019-03-30T21:42:10.430Z,29.2287
2019-03-30T21:44:21.963Z,29.1798
2019-03-30T21:46:23.419Z,29.0547
2019-03-30T21:48:27.423Z,29.1707
2019-03-30T21:50:31.430Z,29.1875
2019-03-30T21:52:35.424Z,29.1875
2019-03-30T21:54:39.423Z,29.3309
2019-03-30T21:56:43.445Z,29.3477
2019-03-30T21:58:47.437Z,29.4820
2019-03-30T22:00:51.429Z,29.3935
2019-03-30T22:02:55.425Z,29.4713
2019-03-30T22:04:59.433Z,29.5125
2019-03-30T22:07:03.442Z,29.4820
2019-03-30T22:09:07.497Z,29.5323
2019-03-30T22:11:11.435Z,29.5171
2019-03-30T22:13:15.436Z,29.4728
2019-03-30T22:15:19.441Z,29.5445
2019-03-30T22:17:23.511Z,29.3660
2019-03-30T22:19:27.418Z,29.4667
2019-03-30T22:21:31.428Z,29.4087
2019-03-30T22:23:35.440Z,29.5918
2019-03-30T22:25:39.437Z,29.4850
2019-03-30T22:27:43.453Z,29.5399
2019-03-30T22:29:47.407Z,29.5125
2019-03-30T22:31:51.414Z,29.6468
2019-03-30T22:33:55.422Z,29.6315
2019-03-30T22:35:59.421Z,29.6910
2019-03-30T22:38:03.426Z,29.5735
2019-03-30T22:40:07.407Z,29.6773
2019-03-30T22:42:11.437Z,29.5323
2019-03-30T22:44:15.462Z,29.5918
2019-03-30T22:46:19.416Z,29.6330
2019-03-30T22:48:23.428Z,29.6361
2019-03-30T22:50:27.411Z,29.6315
2019-03-30T22:52:31.409Z,29.6330
2019-03-30T22:54:35.404Z,29.7978
2019-03-30T22:56:39.429Z,29.8604
2019-03-30T22:58:43.437Z,29.6681
2019-03-30T23:00:47.463Z,29.6819
2019-03-30T23:02:51.402Z,29.7154
2019-03-30T23:04:55.437Z,29.6773
2019-03-30T23:06:59.431Z,29.8604
2019-03-30T23:09:03.417Z,29.8116
2019-03-30T23:11:07.424Z,29.7932
2019-03-30T23:13:11.414Z,29.8283
2019-03-30T23:15:15.428Z,29.8283
2019-03-30T23:17:19.426Z,29.7841
2019-03-30T23:19:23.431Z,29.8009
2019-03-30T23:21:27.410Z,29.8741
2019-03-30T23:23:31.424Z,29.8146
2019-03-30T23:25:35.412Z,29.8741
2019-03-30T23:27:39.412Z,29.9351
2019-03-30T23:29:43.397Z,29.9657
2019-03-30T23:31:47.424Z,29.8756
2019-03-30T23:33:51.435Z,29.7841
2019-03-30T23:35:55.442Z,29.9474
2019-03-30T23:37:59.417Z,29.8894
2019-03-30T23:40:03.438Z,29.9901
2019-03-30T23:42:07.417Z,29.9168
2019-03-30T23:44:11.436Z,29.9168
2019-03-30T23:46:15.425Z,30.0496
2019-03-30T23:48:19.433Z,30.0938
2019-03-30T23:50:23.421Z,30.0313
2019-03-30T23:52:27.425Z,29.9763
2019-03-30T23:54:31.412Z,30.0938
2019-03-30T23:56:35.425Z,30.0038
2019-03-30T23:58:39.408Z,29.9489
